createdAt,value
2018-05-13T00:01:40.392Z,99.90
2018-05-13T00:04:07.991Z,99.90
2018-05-13T00:06:36.734Z,99.90
2018-05-13T00:09:04.296Z,99.90
2018-05-13T00:11:33.045Z,99.90
2018-05-13T00:14:01.383Z,99.90
2018-05-13T00:16:28.960Z,99.90
2018-05-13T00:18:56.923Z,99.90
2018-05-13T00:21:24.565Z,99.90
2018-05-13T00:23:52.154Z,99.90
2018-05-13T00:26:20.120Z,99.90
2018-05-13T00:28:48.105Z,99.90
2018-05-13T00:31:16.095Z,99.90
2018-05-13T00:33:44.073Z,99.90
2018-05-13T00:36:12.080Z,99.90
2018-05-13T00:38:40.855Z,99.90
2018-05-13T00:41:08.476Z,99.90
2018-05-13T00:43:36.480Z,99.90
2018-05-13T00:46:04.309Z,99.90
2018-05-13T00:48:31.893Z,99.90
2018-05-13T00:50:59.914Z,99.90
2018-05-13T00:53:27.884Z,99.90
2018-05-13T00:55:55.985Z,99.90
2018-05-13T00:58:23.970Z,99.90
2018-05-13T01:00:51.941Z,99.90
2018-05-13T01:03:19.911Z,99.90
2018-05-13T01:05:47.874Z,99.90
2018-05-13T01:08:16.041Z,99.90
2018-05-13T01:10:44.004Z,99.90
2018-05-13T01:13:11.995Z,99.90
2018-05-13T01:15:40.345Z,99.90
2018-05-13T01:18:08.391Z,99.90
2018-05-13T01:20:35.969Z,99.90
2018-05-13T01:23:03.932Z,99.90
2018-05-13T01:25:32.097Z,99.90
2018-05-13T01:28:00.407Z,99.90
2018-05-13T01:30:27.971Z,99.90
2018-05-13T01:32:55.947Z,99.90
2018-05-13T01:35:23.930Z,99.90
2018-05-13T01:37:52.305Z,99.90
2018-05-13T01:40:20.628Z,99.90
2018-05-13T01:42:48.208Z,99.90
2018-05-13T01:45:16.212Z,99.90
2018-05-13T01:47:43.777Z,99.90
2018-05-13T01:50:11.870Z,99.90
2018-05-13T01:52:39.839Z,99.90
2018-05-13T01:55:07.865Z,99.90
2018-05-13T01:57:36.048Z,99.90
2018-05-13T02:00:04.012Z,99.90
2018-05-13T02:02:31.970Z,99.90
2018-05-13T02:04:59.991Z,99.90
2018-05-13T02:07:28.339Z,99.90
2018-05-13T02:09:57.337Z,99.90
2018-05-13T02:12:26.159Z,99.90
2018-05-13T02:14:53.735Z,99.90
2018-05-13T02:17:21.402Z,99.90
2018-05-13T02:19:48.975Z,99.90
2018-05-13T02:22:16.540Z,99.90
2018-05-13T02:24:44.131Z,99.90
2018-05-13T02:27:11.727Z,99.90
2018-05-13T02:29:39.690Z,99.90
2018-05-13T02:32:08.021Z,99.90
2018-05-13T02:34:35.652Z,99.90
2018-05-13T02:37:03.235Z,99.90
2018-05-13T02:39:30.822Z,99.90
2018-05-13T02:41:58.424Z,99.90
2018-05-13T02:44:26.051Z,99.90
2018-05-13T02:46:53.784Z,99.90
2018-05-13T02:49:21.405Z,99.90
2018-05-13T02:51:49.754Z,99.90
2018-05-13T02:54:17.337Z,99.90
2018-05-13T02:56:45.676Z,99.90
2018-05-13T02:59:13.252Z,99.90
2018-05-13T03:01:40.855Z,99.90
2018-05-13T03:04:08.416Z,99.90
2018-05-13T03:06:36.452Z,99.90
2018-05-13T03:09:04.014Z,99.90
2018-05-13T03:11:31.601Z,99.90
2018-05-13T03:14:00.083Z,99.90
2018-05-13T03:16:28.317Z,99.90
2018-05-13T03:18:56.235Z,99.90
2018-05-13T03:21:23.770Z,99.90
2018-05-13T03:23:51.369Z,99.90
2018-05-13T03:26:18.940Z,99.90
2018-05-13T03:28:46.698Z,99.90
2018-05-13T03:31:14.280Z,99.90
2018-05-13T03:33:42.259Z,99.90
2018-05-13T03:36:09.847Z,99.90
2018-05-13T03:38:37.448Z,99.90
2018-05-13T03:41:04.999Z,99.90
2018-05-13T03:43:32.600Z,99.90
2018-05-13T03:46:00.176Z,99.90
2018-05-13T03:48:27.766Z,99.90
2018-05-13T03:50:56.505Z,99.90
2018-05-13T03:53:24.864Z,99.90
2018-05-13T03:55:52.571Z,99.90
2018-05-13T03:58:20.131Z,99.90
2018-05-13T04:00:47.732Z,99.90
2018-05-13T04:03:16.147Z,99.90
2018-05-13T04:05:43.718Z,99.90
2018-05-13T04:11:49.125Z,99.90
2018-05-13T04:14:29.125Z,99.90
2018-05-13T04:16:56.681Z,99.90
2018-05-13T04:19:24.280Z,99.90
2018-05-13T04:21:51.894Z,99.90
2018-05-13T04:24:19.853Z,99.90
2018-05-13T04:26:47.843Z,99.90
2018-05-13T04:29:15.460Z,99.90
2018-05-13T04:31:43.845Z,99.90
2018-05-13T04:34:11.886Z,99.90
2018-05-13T04:36:39.472Z,99.90
2018-05-13T04:39:07.850Z,99.90
2018-05-13T04:41:35.417Z,99.90
2018-05-13T04:44:03.755Z,99.90
2018-05-13T04:46:31.720Z,99.90
2018-05-13T04:48:59.303Z,99.90
2018-05-13T04:51:26.894Z,99.90
2018-05-13T04:53:55.215Z,99.90
2018-05-13T04:56:22.821Z,99.90
2018-05-13T04:58:50.376Z,99.90
2018-05-13T05:01:17.980Z,99.90
2018-05-13T05:03:45.973Z,99.90
2018-05-13T05:06:13.638Z,99.90
2018-05-13T05:08:41.627Z,99.90
2018-05-13T05:11:09.218Z,99.90
2018-05-13T05:13:37.599Z,99.90
2018-05-13T05:16:05.953Z,99.90
2018-05-13T05:18:33.552Z,99.90
2018-05-13T05:21:01.563Z,99.90
2018-05-13T05:23:29.548Z,99.90
2018-05-13T05:25:57.134Z,99.90
2018-05-13T05:28:24.741Z,99.90
2018-05-13T05:30:52.315Z,99.90
2018-05-13T05:33:19.908Z,99.90
2018-05-13T05:35:47.560Z,99.90
2018-05-13T05:38:15.841Z,99.90
2018-05-13T05:40:43.411Z,99.90
2018-05-13T05:43:11.017Z,99.90
2018-05-13T05:45:38.587Z,99.90
2018-05-13T05:48:06.189Z,99.90
2018-05-13T05:50:33.832Z,99.90
2018-05-13T05:53:01.413Z,99.90
2018-05-13T05:55:29.387Z,99.90
2018-05-13T05:57:57.748Z,99.90
2018-05-13T06:00:25.327Z,99.90
2018-05-13T06:02:52.913Z,99.90
2018-05-13T06:05:22.190Z,99.90
2018-05-13T06:07:49.781Z,99.90
2018-05-13T06:10:18.127Z,99.90
2018-05-13T06:12:45.694Z,99.90
2018-05-13T06:15:13.285Z,99.90
2018-05-13T06:17:40.862Z,99.90
2018-05-13T06:20:08.451Z,99.90
2018-05-13T06:22:36.027Z,99.90
2018-05-13T06:25:03.629Z,99.90
2018-05-13T06:27:31.977Z,99.90
2018-05-13T06:29:59.567Z,99.90
2018-05-13T06:32:27.895Z,99.90
2018-05-13T06:34:55.661Z,99.90
2018-05-13T06:37:23.215Z,99.90
2018-05-13T06:39:50.789Z,99.90
2018-05-13T06:42:19.160Z,99.90
2018-05-13T06:44:46.997Z,99.90
2018-05-13T06:47:14.569Z,98.30
2018-05-13T06:49:42.135Z,97.40
2018-05-13T06:52:09.761Z,97.20
2018-05-13T06:54:37.319Z,95.70
2018-05-13T06:57:05.698Z,93.40
2018-05-13T06:59:34.036Z,92.30
2018-05-13T07:02:02.214Z,92.20
2018-05-13T07:04:29.789Z,93.40
2018-05-13T07:06:57.381Z,93.60
2018-05-13T07:09:24.996Z,93.70
2018-05-13T07:11:52.630Z,95.10
2018-05-13T07:14:20.203Z,94.40
2018-05-13T07:16:47.794Z,95.30
2018-05-13T07:19:15.371Z,95.50
2018-05-13T07:21:43.736Z,95.80
2018-05-13T07:24:11.346Z,95.70
2018-05-13T07:26:38.927Z,96.40
2018-05-13T07:29:06.541Z,96.60
2018-05-13T07:31:34.876Z,96.80
2018-05-13T07:34:02.480Z,95.40
2018-05-13T07:36:30.441Z,94.50
2018-05-13T07:38:58.045Z,94.80
2018-05-13T07:41:26.687Z,94.20
2018-05-13T07:43:54.278Z,95.00
2018-05-13T07:46:27.189Z,93.40
2018-05-13T07:48:57.146Z,92.90
2018-05-13T07:51:24.741Z,94.20
2018-05-13T07:53:52.992Z,93.30
2018-05-13T07:56:20.624Z,90.10
2018-05-13T07:58:48.306Z,90.00
2018-05-13T08:01:15.898Z,88.10
2018-05-13T08:03:44.275Z,90.60
2018-05-13T08:06:12.952Z,92.60
2018-05-13T08:08:40.491Z,92.60
2018-05-13T08:11:08.110Z,89.90
2018-05-13T08:13:35.677Z,87.10
2018-05-13T08:16:03.268Z,87.40
2018-05-13T08:18:30.946Z,87.70
2018-05-13T08:20:58.997Z,87.30
2018-05-13T08:23:26.586Z,83.80
2018-05-13T08:25:54.183Z,84.30
2018-05-13T08:28:21.754Z,83.60
2018-05-13T08:30:49.414Z,81.60
2018-05-13T08:33:16.993Z,74.10
2018-05-13T08:35:44.584Z,72.90
2018-05-13T08:38:12.239Z,70.20
2018-05-13T08:40:39.864Z,72.70
2018-05-13T08:43:07.873Z,74.10
2018-05-13T08:45:35.465Z,76.20
2018-05-13T08:48:03.456Z,81.40
2018-05-13T08:50:31.885Z,80.50
2018-05-13T08:52:59.525Z,82.70
2018-05-13T08:55:27.428Z,78.00
2018-05-13T08:57:55.480Z,76.10
2018-05-13T09:00:23.047Z,76.80
2018-05-13T09:02:50.629Z,69.60
2018-05-13T09:05:18.669Z,69.60
2018-05-13T09:07:46.249Z,71.50
2018-05-13T09:10:14.636Z,71.90
2018-05-13T09:12:43.123Z,73.50
2018-05-13T09:15:10.697Z,72.10
2018-05-13T09:17:38.686Z,75.60
2018-05-13T09:20:06.263Z,77.00
2018-05-13T09:22:33.873Z,78.20
2018-05-13T09:25:01.426Z,79.70
2018-05-13T09:27:29.406Z,77.30
2018-05-13T09:29:57.762Z,79.00
2018-05-13T09:32:25.366Z,76.80
2018-05-13T09:34:53.749Z,75.80
2018-05-13T09:37:21.353Z,77.60
2018-05-13T09:39:48.920Z,72.80
2018-05-13T09:42:16.514Z,72.30
2018-05-13T09:44:44.101Z,72.40
2018-05-13T09:47:12.613Z,75.40
2018-05-13T09:49:40.220Z,72.90
2018-05-13T09:52:08.181Z,74.00
2018-05-13T09:54:35.772Z,73.80
2018-05-13T09:57:04.172Z,75.10
2018-05-13T09:59:31.795Z,73.30
2018-05-13T10:02:00.232Z,76.50
2018-05-13T10:04:27.871Z,74.30
2018-05-13T10:06:55.438Z,76.00
2018-05-13T10:09:23.137Z,74.70
2018-05-13T10:11:51.437Z,78.20
2018-05-13T10:14:19.048Z,76.60
2018-05-13T10:16:47.373Z,77.20
2018-05-13T10:19:15.774Z,79.70
2018-05-13T10:21:44.098Z,83.40
2018-05-13T10:24:12.113Z,87.50
2018-05-13T10:26:39.707Z,85.90
2018-05-13T10:29:07.299Z,84.60
2018-05-13T10:31:35.659Z,83.30
2018-05-13T10:34:03.385Z,83.50
2018-05-13T10:36:31.397Z,85.30
2018-05-13T10:38:59.708Z,83.70
2018-05-13T10:41:27.356Z,83.50
2018-05-13T10:43:55.362Z,83.70
2018-05-13T10:46:23.352Z,86.80
2018-05-13T10:48:51.309Z,89.80
2018-05-13T10:51:19.699Z,88.00
2018-05-13T10:53:48.448Z,88.80
2018-05-13T10:56:16.062Z,91.20
2018-05-13T10:58:43.617Z,91.60
2018-05-13T11:01:11.617Z,94.00
2018-05-13T11:03:39.585Z,93.90
2018-05-13T11:06:08.792Z,96.40
2018-05-13T11:08:36.813Z,97.20
2018-05-13T11:11:07.440Z,98.60
2018-05-13T11:13:35.017Z,97.70
2018-05-13T11:16:07.762Z,98.60
2018-05-13T11:18:36.128Z,99.60
2018-05-13T11:21:03.801Z,99.90
2018-05-13T11:23:31.409Z,99.90
2018-05-13T11:25:59.780Z,99.90
2018-05-13T11:28:28.149Z,99.90
2018-05-13T11:30:56.558Z,99.90
2018-05-13T11:33:24.516Z,99.90
2018-05-13T11:35:53.203Z,99.90
2018-05-13T11:38:21.575Z,99.90
2018-05-13T11:40:50.014Z,99.90
2018-05-13T11:43:17.643Z,99.90
2018-05-13T11:45:46.068Z,99.90
2018-05-13T11:48:14.061Z,99.90
2018-05-13T11:50:42.437Z,99.90
2018-05-13T11:53:10.412Z,99.90
2018-05-13T11:55:38.480Z,99.90
2018-05-13T11:58:06.091Z,99.90
2018-05-13T12:00:34.488Z,99.90
2018-05-13T12:03:02.108Z,99.90
2018-05-13T12:05:30.057Z,99.90
2018-05-13T12:07:58.049Z,99.90
2018-05-13T12:10:26.040Z,99.90
2018-05-13T12:12:53.804Z,99.90
2018-05-13T12:15:22.078Z,99.90
2018-05-13T12:17:50.149Z,99.90
2018-05-13T12:20:19.214Z,99.90
2018-05-13T12:25:19.033Z,99.90
2018-05-13T12:27:47.426Z,99.90
2018-05-13T12:30:16.556Z,99.90
2018-05-13T12:32:44.556Z,99.90
2018-05-13T12:35:13.292Z,99.90
2018-05-13T12:37:42.466Z,99.90
2018-05-13T12:40:10.223Z,99.90
2018-05-13T12:42:38.953Z,99.90
2018-05-13T12:45:07.501Z,99.90
2018-05-13T12:47:35.095Z,99.90
2018-05-13T12:50:03.844Z,99.90
2018-05-13T12:52:32.472Z,99.90
2018-05-13T12:55:01.225Z,99.90
2018-05-13T12:57:29.453Z,99.90
2018-05-13T12:59:57.500Z,99.90
2018-05-13T13:02:25.965Z,99.90
2018-05-13T13:04:53.496Z,99.90
2018-05-13T13:07:22.232Z,99.90
2018-05-13T13:09:50.967Z,99.90
2018-05-13T13:12:19.713Z,99.90
2018-05-13T13:14:47.316Z,99.90
2018-05-13T13:17:15.354Z,99.90
2018-05-13T13:19:43.701Z,99.90
2018-05-13T13:22:12.308Z,99.90
2018-05-13T13:24:39.829Z,99.90
2018-05-13T13:27:08.465Z,99.90
2018-05-13T13:29:37.655Z,99.90
2018-05-13T13:32:06.838Z,99.90
2018-05-13T13:34:35.272Z,99.90
2018-05-13T13:37:04.067Z,99.90
2018-05-13T13:39:32.116Z,99.90
2018-05-13T13:42:01.185Z,99.90
2018-05-13T13:44:30.124Z,99.90
2018-05-13T13:46:59.223Z,99.90
2018-05-13T13:49:27.241Z,99.90
2018-05-13T13:51:55.204Z,99.90
2018-05-13T13:54:23.194Z,99.90
2018-05-13T13:56:51.180Z,99.90
2018-05-13T13:59:19.301Z,99.90
2018-05-13T14:01:46.896Z,99.90
2018-05-13T14:04:15.640Z,99.90
2018-05-13T14:06:43.633Z,99.90
2018-05-13T14:09:12.415Z,99.90
2018-05-13T14:11:40.010Z,99.90
2018-05-13T14:14:09.125Z,99.90
2018-05-13T14:16:37.475Z,99.90
2018-05-13T14:19:05.909Z,99.90
2018-05-13T14:21:33.478Z,99.90
2018-05-13T14:24:01.087Z,99.90
2018-05-13T14:26:29.141Z,99.90
2018-05-13T14:28:57.350Z,99.90
2018-05-13T14:31:25.351Z,99.90
2018-05-13T14:33:52.939Z,99.90
2018-05-13T14:36:21.330Z,99.90
2018-05-13T14:38:49.725Z,99.90
2018-05-13T14:41:18.200Z,99.90
2018-05-13T14:46:16.185Z,99.90
2018-05-13T14:48:44.534Z,99.90
2018-05-13T14:51:12.543Z,99.90
2018-05-13T14:53:40.889Z,99.90
2018-05-13T14:56:09.268Z,99.90
2018-05-13T14:58:36.860Z,99.90
2018-05-13T15:01:04.888Z,99.90
2018-05-13T15:03:33.241Z,99.90
2018-05-13T15:06:01.576Z,99.90
2018-05-13T15:08:29.310Z,99.90
2018-05-13T15:10:56.933Z,99.90
2018-05-13T15:13:24.925Z,99.90
2018-05-13T15:15:52.976Z,99.90
2018-05-13T15:18:21.367Z,99.90
2018-05-13T15:20:49.747Z,99.90
2018-05-13T15:23:18.917Z,99.90
2018-05-13T15:25:46.914Z,99.90
2018-05-13T15:28:15.337Z,99.90
2018-05-13T15:30:43.048Z,99.90
2018-05-13T15:33:12.438Z,99.90
2018-05-13T15:35:40.806Z,99.90
2018-05-13T15:38:09.584Z,99.90
2018-05-13T15:40:37.222Z,99.90
2018-05-13T15:43:04.913Z,99.90
2018-05-13T15:45:33.193Z,99.90
2018-05-13T15:48:00.807Z,99.90
2018-05-13T15:50:29.201Z,99.90
2018-05-13T15:52:56.783Z,99.90
2018-05-13T15:55:25.310Z,99.90
2018-05-13T15:57:52.872Z,99.90
2018-05-13T16:00:20.908Z,99.90
2018-05-13T16:02:48.887Z,99.90
2018-05-13T16:05:17.633Z,99.90
2018-05-13T16:07:45.248Z,99.90
2018-05-13T16:10:13.259Z,99.90
2018-05-13T16:12:40.872Z,99.90
2018-05-13T16:15:08.872Z,99.90
2018-05-13T16:17:36.845Z,99.90
2018-05-13T16:20:04.854Z,99.90
2018-05-13T16:22:33.321Z,99.90
2018-05-13T16:25:01.650Z,99.90
2018-05-13T16:27:29.734Z,99.90
2018-05-13T16:29:58.105Z,99.90
2018-05-13T16:32:26.503Z,99.90
2018-05-13T16:34:55.019Z,99.90
2018-05-13T16:37:23.154Z,99.90
2018-05-13T16:39:51.593Z,99.90
2018-05-13T16:42:19.963Z,99.90
2018-05-13T16:44:47.608Z,99.90
2018-05-13T16:47:15.281Z,99.90
2018-05-13T16:49:43.040Z,99.90
2018-05-13T16:52:11.787Z,99.90
2018-05-13T16:54:40.755Z,99.90
2018-05-13T16:59:38.412Z,99.90
2018-05-13T17:02:06.788Z,99.90
2018-05-13T17:04:35.131Z,99.90
2018-05-13T17:07:03.523Z,99.90
2018-05-13T17:09:31.413Z,99.90
2018-05-13T17:11:59.135Z,99.90
2018-05-13T17:14:27.126Z,99.90
2018-05-13T17:16:55.095Z,99.90
2018-05-13T17:19:23.145Z,99.90
2018-05-13T17:21:51.133Z,99.90
2018-05-13T17:26:47.660Z,99.90
2018-05-13T17:31:44.176Z,99.90
2018-05-13T17:34:12.170Z,99.90
2018-05-13T17:36:40.599Z,99.90
2018-05-13T17:39:09.192Z,99.90
2018-05-13T17:41:37.190Z,99.90
2018-05-13T17:44:04.951Z,99.90
2018-05-13T17:46:32.894Z,99.90
2018-05-13T17:49:00.872Z,99.90
2018-05-13T17:51:29.242Z,99.90
2018-05-13T17:53:56.836Z,99.90
2018-05-13T17:56:24.883Z,99.90
2018-05-13T17:58:53.257Z,99.90
2018-05-13T18:01:21.258Z,99.90
2018-05-13T18:03:48.802Z,99.90
2018-05-13T18:06:16.824Z,99.90
2018-05-13T18:08:45.619Z,99.90
2018-05-13T18:11:13.999Z,99.90
2018-05-13T18:13:43.532Z,99.90
2018-05-13T18:16:11.190Z,99.90
2018-05-13T18:18:40.081Z,99.90
2018-05-13T18:21:09.179Z,99.90
2018-05-13T18:23:37.931Z,99.90
2018-05-13T18:26:05.573Z,99.90
2018-05-13T18:28:33.315Z,99.90
2018-05-13T18:31:01.089Z,99.90
2018-05-13T18:33:29.121Z,99.90
2018-05-13T18:35:57.624Z,99.90
2018-05-13T18:38:25.271Z,99.90
2018-05-13T18:40:53.920Z,99.90
2018-05-13T18:43:21.652Z,99.90
2018-05-13T18:45:50.855Z,99.90
2018-05-13T18:55:47.569Z,99.90
2018-05-13T18:58:15.659Z,99.90
2018-05-13T19:03:13.857Z,99.90
2018-05-13T19:05:43.072Z,99.90
2018-05-13T19:08:11.149Z,99.90
2018-05-13T19:10:39.635Z,99.90
2018-05-13T19:13:07.396Z,99.90
2018-05-13T19:15:35.171Z,99.90
2018-05-13T19:18:03.646Z,99.90
2018-05-13T19:20:31.522Z,99.90
2018-05-13T19:23:00.357Z,99.90
2018-05-13T19:25:28.864Z,99.90
2018-05-13T19:27:57.425Z,99.90
2018-05-13T19:30:25.511Z,99.90
2018-05-13T19:32:54.694Z,99.90
2018-05-13T19:35:22.841Z,99.90
2018-05-13T19:37:51.003Z,99.90
2018-05-13T19:40:19.825Z,99.90
2018-05-13T19:42:48.453Z,99.90
2018-05-13T19:47:45.749Z,99.90
2018-05-13T19:50:13.348Z,99.90
2018-05-13T19:52:40.946Z,99.90
2018-05-13T19:57:37.496Z,99.90
2018-05-13T20:00:05.205Z,99.90
2018-05-13T20:02:33.959Z,99.90
2018-05-13T20:05:01.553Z,99.90
2018-05-13T20:07:29.733Z,99.90
2018-05-13T20:09:58.843Z,99.90
2018-05-13T20:12:26.799Z,99.90
2018-05-13T20:14:55.601Z,99.90
2018-05-13T20:17:23.223Z,99.90
2018-05-13T20:19:51.261Z,99.90
2018-05-13T20:22:19.618Z,99.90
2018-05-13T20:24:47.223Z,99.90
2018-05-13T20:27:15.705Z,99.90
2018-05-13T20:29:44.082Z,99.90
2018-05-13T20:34:40.587Z,99.90
2018-05-13T20:37:08.596Z,99.90
2018-05-13T20:39:36.590Z,99.90
2018-05-13T20:42:04.580Z,99.90
2018-05-13T20:44:32.554Z,99.90
2018-05-13T20:47:01.309Z,99.90
2018-05-13T20:49:29.672Z,99.90
2018-05-13T20:51:57.294Z,99.90
2018-05-13T20:54:24.861Z,99.90
2018-05-13T20:56:52.460Z,99.90
2018-05-13T20:59:20.462Z,99.90
2018-05-13T21:01:48.095Z,99.90
2018-05-13T21:04:15.653Z,99.90
2018-05-13T21:06:43.285Z,99.90
2018-05-13T21:09:11.293Z,99.90
2018-05-13T21:11:39.648Z,99.90
2018-05-13T21:14:07.240Z,99.90
2018-05-13T21:16:36.653Z,99.90
2018-05-13T21:19:05.510Z,99.90
2018-05-13T21:21:33.101Z,99.90
2018-05-13T21:24:01.480Z,99.90
2018-05-13T21:26:29.812Z,99.90
2018-05-13T21:28:58.941Z,99.90
2018-05-13T21:31:27.295Z,99.90
2018-05-13T21:33:54.905Z,99.90
2018-05-13T21:38:52.560Z,99.90
2018-05-13T21:41:20.932Z,99.90
2018-05-13T21:43:48.540Z,99.90
2018-05-13T21:46:16.537Z,99.90
2018-05-13T21:48:44.913Z,99.90
2018-05-13T21:51:12.501Z,99.90
2018-05-13T21:53:41.232Z,99.90
2018-05-13T21:56:08.836Z,99.90
2018-05-13T21:58:36.454Z,99.90
2018-05-13T22:01:04.445Z,99.90
2018-05-13T22:03:32.444Z,99.90
2018-05-13T22:06:00.800Z,99.90
2018-05-13T22:10:57.293Z,99.90
2018-05-13T22:13:24.853Z,99.90
2018-05-13T22:15:52.515Z,99.90
2018-05-13T22:18:20.508Z,99.90
2018-05-13T22:20:49.246Z,99.90
2018-05-13T22:23:16.817Z,99.90
2018-05-13T22:25:44.500Z,99.90
2018-05-13T22:28:12.396Z,99.90
2018-05-13T22:30:40.404Z,99.90
2018-05-13T22:33:08.375Z,99.90
2018-05-13T22:35:36.349Z,99.90
2018-05-13T22:38:03.941Z,99.90
2018-05-13T22:40:31.909Z,99.90
2018-05-13T22:42:59.507Z,99.90
2018-05-13T22:45:27.867Z,99.90
2018-05-13T22:47:56.840Z,99.90
2018-05-13T22:50:24.424Z,99.90
2018-05-13T22:52:52.400Z,99.90
2018-05-13T22:55:20.752Z,99.90
2018-05-13T22:57:49.187Z,99.90
2018-05-13T23:00:16.763Z,99.90
2018-05-13T23:02:44.370Z,99.90
2018-05-13T23:05:12.403Z,99.90
2018-05-13T23:07:40.368Z,99.90
2018-05-13T23:10:08.360Z,99.90
2018-05-13T23:12:36.709Z,99.90
2018-05-13T23:15:04.709Z,99.90
2018-05-13T23:17:32.317Z,99.90
2018-05-13T23:20:00.668Z,99.90
2018-05-13T23:22:34.157Z,99.90
2018-05-13T23:25:02.531Z,99.90
2018-05-13T23:29:59.199Z,99.90
2018-05-13T23:32:26.807Z,99.90
2018-05-13T23:34:54.377Z,99.90
2018-05-13T23:37:22.324Z,99.90
2018-05-13T23:39:50.704Z,99.90
2018-05-13T23:42:18.281Z,99.90
2018-05-13T23:44:46.343Z,99.90
2018-05-13T23:47:14.308Z,99.90
2018-05-13T23:49:42.313Z,99.90
2018-05-13T23:52:10.287Z,99.90
2018-05-13T23:54:38.344Z,99.90
2018-05-13T23:57:05.953Z,99.90
2018-05-13T23:59:33.535Z,99.90
